LHPR/QGY METAR and TAF weather

Enter ICAO airport designator
Station Type Date Time Source
LHPR METAR 2022/01/26 08:15 UTC NOAA

LHPR 260815Z AUTO 29012KT 9999 OVC028 02/M01 Q1029 NOSIG


Station Type Date Time Source
LHPR Decoded METAR 2022/01/26 08:15 UTC NOAA

Station name not available
Jan 26, 2022 - 03:15 AM EST / 2022.01.26 0815 UTC
Wind: from the WNW (290 degrees) at 14 MPH (12 KT):0
Visibility: greater than 7 mile(s):0
Sky conditions: overcast
Temperature: 35 F (2 C)
Windchill: 26 F (-3 C):1
Dew Point: 30 F (-1 C)
Relative Humidity: 80%
Pressure (altimeter): 30.39 in. Hg (1029 hPa)
ob: LHPR 260815Z AUTO 29012KT 9999 OVC028 02/M01 Q1029 NOSIG
cycle: 8

Station Type Date Time Source
LHPR TAF UTC NOAA

Error!

Example: see airport list